sensor_id;sensor_type;location;lat;lon;timestamp;temperature;humidity
73438;DHT22;66471;56.532;21.020;2023-08-24T06:10:27;19.90;89.20
73438;DHT22;66471;56.532;21.020;2023-08-24T06:12:55;20.50;88.60
73438;DHT22;66471;56.532;21.020;2023-08-24T06:15:22;21.20;85.90
73438;DHT22;66471;56.532;21.020;2023-08-24T06:17:51;21.80;85.10
73438;DHT22;66471;56.532;21.020;2023-08-24T06:20:19;21.80;82.90
73438;DHT22;66471;56.532;21.020;2023-08-24T06:22:46;21.40;83.40
73438;DHT22;66471;56.532;21.020;2023-08-24T06:25:14;21.90;82.30
73438;DHT22;66471;56.532;21.020;2023-08-24T06:27:41;21.70;82.20
73438;DHT22;66471;56.532;21.020;2023-08-24T06:30:09;21.40;82.90
73438;DHT22;66471;56.532;21.020;2023-08-24T06:32:36;21.50;82.60
73438;DHT22;66471;56.532;21.020;2023-08-24T06:35:04;21.60;83.10
73438;DHT22;66471;56.532;21.020;2023-08-24T06:37:33;21.50;82.20
73438;DHT22;66471;56.532;21.020;2023-08-24T06:40:00;21.40;82.90
73438;DHT22;66471;56.532;21.020;2023-08-24T06:42:27;21.50;82.90
73438;DHT22;66471;56.532;21.020;2023-08-24T06:44:54;21.70;81.80
73438;DHT22;66471;56.532;21.020;2023-08-24T06:47:21;21.60;82.40
73438;DHT22;66471;56.532;21.020;2023-08-24T06:49:48;21.60;82.30
73438;DHT22;66471;56.532;21.020;2023-08-24T06:52:16;21.90;81.60
73438;DHT22;66471;56.532;21.020;2023-08-24T06:54:43;22.40;80.90
73438;DHT22;66471;56.532;21.020;2023-08-24T06:57:10;22.30;80.50
73438;DHT22;66471;56.532;21.020;2023-08-24T06:59:38;22.40;80.90
73438;DHT22;66471;56.532;21.020;2023-08-24T07:02:05;22.00;81.60
73438;DHT22;66471;56.532;21.020;2023-08-24T07:04:32;21.50;82.50
73438;DHT22;66471;56.532;21.020;2023-08-24T07:07:01;21.80;82.50
73438;DHT22;66471;56.532;21.020;2023-08-24T07:09:28;21.90;81.70
73438;DHT22;66471;56.532;21.020;2023-08-24T07:11:56;21.70;83.10
73438;DHT22;66471;56.532;21.020;2023-08-24T07:14:24;21.70;82.20
73438;DHT22;66471;56.532;21.020;2023-08-24T07:16:53;22.00;81.40
73438;DHT22;66471;56.532;21.020;2023-08-24T07:19:20;22.00;81.10
73438;DHT22;66471;56.532;21.020;2023-08-24T07:21:47;22.70;79.90
73438;DHT22;66471;56.532;21.020;2023-08-24T07:24:15;23.30;76.90
73438;DHT22;66471;56.532;21.020;2023-08-24T07:26:42;23.60;76.40
73438;DHT22;66471;56.532;21.020;2023-08-24T07:29:09;24.10;73.90
73438;DHT22;66471;56.532;21.020;2023-08-24T07:31:36;23.90;74.10
73438;DHT22;66471;56.532;21.020;2023-08-24T07:34:05;23.60;74.60
73438;DHT22;66471;56.532;21.020;2023-08-24T07:36:32;23.00;77.10
73438;DHT22;66471;56.532;21.020;2023-08-24T07:38:59;23.40;75.30
73438;DHT22;66471;56.532;21.020;2023-08-24T07:41:26;23.70;74.60
73438;DHT22;66471;56.532;21.020;2023-08-24T07:43:53;24.20;73.40
73438;DHT22;66471;56.532;21.020;2023-08-24T07:46:21;24.10;74.10
73438;DHT22;66471;56.532;21.020;2023-08-24T07:48:48;24.40;73.80
73438;DHT22;66471;56.532;21.020;2023-08-24T07:51:15;25.00;72.10
73438;DHT22;66471;56.532;21.020;2023-08-24T07:53:42;25.60;68.60
73438;DHT22;66471;56.532;21.020;2023-08-24T07:56:10;25.50;69.10
73438;DHT22;66471;56.532;21.020;2023-08-24T07:58:37;24.80;70.60
73438;DHT22;66471;56.532;21.020;2023-08-24T08:01:04;24.70;71.00
73438;DHT22;66471;56.532;21.020;2023-08-24T08:03:32;24.90;70.00
73438;DHT22;66471;56.532;21.020;2023-08-24T08:05:59;24.80;70.80
73438;DHT22;66471;56.532;21.020;2023-08-24T08:08:26;25.00;70.00
73438;DHT22;66471;56.532;21.020;2023-08-24T08:11:00;25.00;69.50
73438;DHT22;66471;56.532;21.020;2023-08-24T08:13:31;25.40;67.90
73438;DHT22;66471;56.532;21.020;2023-08-24T08:16:05;24.50;71.40
73438;DHT22;66471;56.532;21.020;2023-08-24T08:18:34;25.20;70.80
73438;DHT22;66471;56.532;21.020;2023-08-24T08:21:08;25.70;68.50
73438;DHT22;66471;56.532;21.020;2023-08-24T08:23:35;26.30;67.00
73438;DHT22;66471;56.532;21.020;2023-08-24T08:26:02;27.00;62.00
73438;DHT22;66471;56.532;21.020;2023-08-24T08:28:30;26.80;62.90
73438;DHT22;66471;56.532;21.020;2023-08-24T08:31:00;26.90;61.30
73438;DHT22;66471;56.532;21.020;2023-08-24T08:33:28;25.90;64.80
73438;DHT22;66471;56.532;21.020;2023-08-24T08:35:55;24.90;69.00
73438;DHT22;66471;56.532;21.020;2023-08-24T08:38:23;25.20;68.60
73438;DHT22;66471;56.532;21.020;2023-08-24T08:40:56;25.70;66.10
73438;DHT22;66471;56.532;21.020;2023-08-24T08:43:28;25.30;68.20
73438;DHT22;66471;56.532;21.020;2023-08-24T08:45:58;25.80;67.00
73438;DHT22;66471;56.532;21.020;2023-08-24T08:48:28;26.50;64.00
73438;DHT22;66471;56.532;21.020;2023-08-24T08:50:55;25.70;65.70
73438;DHT22;66471;56.532;21.020;2023-08-24T08:53:23;26.30;64.40
73438;DHT22;66471;56.532;21.020;2023-08-24T08:55:55;25.60;65.90
73438;DHT22;66471;56.532;21.020;2023-08-24T08:58:25;25.50;65.90
73438;DHT22;66471;56.532;21.020;2023-08-24T09:00:54;25.70;66.50
73438;DHT22;66471;56.532;21.020;2023-08-24T09:03:21;26.20;65.10
73438;DHT22;66471;56.532;21.020;2023-08-24T09:05:48;27.00;62.40
73438;DHT22;66471;56.532;21.020;2023-08-24T09:08:16;27.60;58.70
73438;DHT22;66471;56.532;21.020;2023-08-24T09:10:44;28.10;59.40
73438;DHT22;66471;56.532;21.020;2023-08-24T09:13:11;29.10;55.80
73438;DHT22;66471;56.532;21.020;2023-08-24T09:15:39;28.80;56.40
73438;DHT22;66471;56.532;21.020;2023-08-24T09:18:06;27.50;58.80
73438;DHT22;66471;56.532;21.020;2023-08-24T09:20:35;27.10;59.30
73438;DHT22;66471;56.532;21.020;2023-08-24T09:23:03;26.40;60.40
73438;DHT22;66471;56.532;21.020;2023-08-24T09:25:30;25.80;65.50
73438;DHT22;66471;56.532;21.020;2023-08-24T14:26:32;27.40;54.20
73438;DHT22;66471;56.532;21.020;2023-08-24T14:28:59;26.80;56.00
73438;DHT22;66471;56.532;21.020;2023-08-24T14:31:29;26.10;58.30
73438;DHT22;66471;56.532;21.020;2023-08-24T14:33:56;24.60;62.50
73438;DHT22;66471;56.532;21.020;2023-08-24T14:36:24;23.80;66.70
73438;DHT22;66471;56.532;21.020;2023-08-24T14:38:51;23.80;67.60
73438;DHT22;66471;56.532;21.020;2023-08-24T14:41:19;23.60;67.40
73438;DHT22;66471;56.532;21.020;2023-08-24T14:43:47;23.20;71.20
73438;DHT22;66471;56.532;21.020;2023-08-24T14:46:14;22.90;71.10
73438;DHT22;66471;56.532;21.020;2023-08-24T14:48:42;22.80;72.80
73438;DHT22;66471;56.532;21.020;2023-08-24T14:51:09;23.00;71.60
73438;DHT22;66471;56.532;21.020;2023-08-24T14:53:36;23.00;72.50
73438;DHT22;66471;56.532;21.020;2023-08-24T14:56:05;22.70;72.50
73438;DHT22;66471;56.532;21.020;2023-08-24T14:58:33;22.70;73.20
73438;DHT22;66471;56.532;21.020;2023-08-24T15:01:00;23.10;71.30
73438;DHT22;66471;56.532;21.020;2023-08-24T15:03:27;23.30;70.40
73438;DHT22;66471;56.532;21.020;2023-08-24T15:06:01;23.00;72.70
73438;DHT22;66471;56.532;21.020;2023-08-24T15:08:32;22.70;73.20
73438;DHT22;66471;56.532;21.020;2023-08-24T15:11:01;23.40;72.60
73438;DHT22;66471;56.532;21.020;2023-08-24T15:13:32;23.90;67.40
73438;DHT22;66471;56.532;21.020;2023-08-24T15:15:59;23.40;69.60
73438;DHT22;66471;56.532;21.020;2023-08-24T15:18:27;22.60;73.10
73438;DHT22;66471;56.532;21.020;2023-08-24T15:20:54;22.70;73.00
73438;DHT22;66471;56.532;21.020;2023-08-24T15:23:26;23.30;71.90
73438;DHT22;66471;56.532;21.020;2023-08-24T15:25:55;23.30;71.50
73438;DHT22;66471;56.532;21.020;2023-08-24T15:28:23;23.00;75.90
73438;DHT22;66471;56.532;21.020;2023-08-24T15:30:51;22.50;73.60
73438;DHT22;66471;56.532;21.020;2023-08-24T15:33:19;22.20;73.80
73438;DHT22;66471;56.532;21.020;2023-08-24T15:35:47;21.90;76.70
73438;DHT22;66471;56.532;21.020;2023-08-24T15:38:14;21.70;75.80
73438;DHT22;66471;56.532;21.020;2023-08-24T15:40:41;21.90;76.10
73438;DHT22;66471;56.532;21.020;2023-08-24T15:43:11;22.00;75.30
73438;DHT22;66471;56.532;21.020;2023-08-24T15:45:38;21.90;76.00
73438;DHT22;66471;56.532;21.020;2023-08-24T15:48:06;22.20;75.50
73438;DHT22;66471;56.532;21.020;2023-08-24T15:50:33;22.50;74.20
73438;DHT22;66471;56.532;21.020;2023-08-24T15:53:01;22.60;74.20
73438;DHT22;66471;56.532;21.020;2023-08-24T15:55:31;22.40;73.90
73438;DHT22;66471;56.532;21.020;2023-08-24T15:58:02;22.20;74.80
73438;DHT22;66471;56.532;21.020;2023-08-24T16:00:29;22.00;76.00
73438;DHT22;66471;56.532;21.020;2023-08-24T16:02:57;21.70;75.60
73438;DHT22;66471;56.532;21.020;2023-08-24T16:05:24;21.50;76.10
73438;DHT22;66471;56.532;21.020;2023-08-24T16:07:52;21.30;77.00
73438;DHT22;66471;56.532;21.020;2023-08-24T16:10:21;21.10;77.60
73438;DHT22;66471;56.532;21.020;2023-08-24T16:12:49;21.00;78.60
73438;DHT22;66471;56.532;21.020;2023-08-24T16:15:16;20.90;79.20
73438;DHT22;66471;56.532;21.020;2023-08-24T16:17:44;20.70;80.50
73438;DHT22;66471;56.532;21.020;2023-08-24T16:20:11;20.60;80.80
73438;DHT22;66471;56.532;21.020;2023-08-24T16:22:39;20.60;80.90
73438;DHT22;66471;56.532;21.020;2023-08-24T16:25:06;20.30;81.70
73438;DHT22;66471;56.532;21.020;2023-08-24T16:27:38;20.30;82.30
73438;DHT22;66471;56.532;21.020;2023-08-24T16:30:07;20.20;82.60
73438;DHT22;66471;56.532;21.020;2023-08-24T16:32:34;20.10;83.50
73438;DHT22;66471;56.532;21.020;2023-08-24T16:35:01;20.20;82.70
73438;DHT22;66471;56.532;21.020;2023-08-24T16:37:28;20.10;82.40
73438;DHT22;66471;56.532;21.020;2023-08-24T16:39:58;20.10;82.80
73438;DHT22;66471;56.532;21.020;2023-08-24T16:42:26;20.00;83.20
73438;DHT22;66471;56.532;21.020;2023-08-24T16:44:53;20.00;83.20
73438;DHT22;66471;56.532;21.020;2023-08-24T16:47:20;19.90;84.30
73438;DHT22;66471;56.532;21.020;2023-08-24T16:49:47;19.90;84.60
73438;DHT22;66471;56.532;21.020;2023-08-24T16:52:14;20.00;85.60
73438;DHT22;66471;56.532;21.020;2023-08-24T16:54:41;19.80;84.90
73438;DHT22;66471;56.532;21.020;2023-08-24T16:57:08;19.80;84.70
73438;DHT22;66471;56.532;21.020;2023-08-24T16:59:35;19.70;85.50
73438;DHT22;66471;56.532;21.020;2023-08-24T17:02:03;19.70;85.90
73438;DHT22;66471;56.532;21.020;2023-08-24T17:04:30;19.70;86.00
73438;DHT22;66471;56.532;21.020;2023-08-24T17:06:58;19.80;85.50
73438;DHT22;66471;56.532;21.020;2023-08-24T17:09:25;19.80;85.20
73438;DHT22;66471;56.532;21.020;2023-08-24T17:24:29;19.40;85.70
